Time;durP1;ratioP1;P1;durP2;ratioP2;P2;SDS_P1;SDS_P2;PMS_P1;PMS_P2;Temp;Humidity;BMP_temperature;BMP_pressure;BME280_temperature;BME280_humidity;BME280_pressure;Samples;Min_cycle;Max_cycle;Signal;HPM_P1;HPM_P2
2023/01/15 00:01:03;;;;;;;12.70;1.50;;;;;;;4.72;100.00;98611.59;4964146;28;19944;-77
2023/01/15 00:03:29;;;;;;;7.97;1.70;;;;;;;4.66;100.00;98610.50;4969111;28;20093;-76
2023/01/15 00:05:55;;;;;;;5.38;1.45;;;;;;;4.71;100.00;98620.53;4955610;28;20504;-77
2023/01/15 00:08:20;;;;;;;8.48;2.03;;;;;;;4.69;100.00;98623.34;4962259;28;20106;-77
2023/01/15 00:10:46;;;;;;;6.22;1.13;;;;;;;4.62;100.00;98611.84;4944700;28;20071;-77
2023/01/15 00:13:11;;;;;;;6.60;1.27;;;;;;;4.63;100.00;98618.75;4986102;28;20026;-77
2023/01/15 00:15:36;;;;;;;16.38;2.13;;;;;;;4.67;100.00;98613.97;4984547;28;20402;-77
2023/01/15 00:18:02;;;;;;;9.63;1.60;;;;;;;4.61;100.00;98611.03;4969818;28;20395;-77
2023/01/15 00:20:27;;;;;;;12.85;2.35;;;;;;;4.72;100.00;98616.88;4969590;28;20114;-77
2023/01/15 00:22:53;;;;;;;12.17;2.10;;;;;;;4.79;100.00;98641.63;4969568;28;20019;-77
2023/01/15 00:28:22;;;;;;;13.82;1.63;;;;;;;4.72;100.00;98612.41;4940790;28;20452;-77
2023/01/15 00:30:47;;;;;;;15.83;2.07;;;;;;;4.76;100.00;98612.91;4943363;29;20035;-77
2023/01/15 00:33:13;;;;;;;17.83;2.67;;;;;;;4.71;100.00;98610.78;4963390;28;20652;-77
2023/01/15 00:35:38;;;;;;;6.30;1.50;;;;;;;4.69;100.00;98611.97;4977626;28;20062;-77
2023/01/15 00:38:04;;;;;;;11.97;2.30;;;;;;;4.64;100.00;98613.31;4971961;28;20022;-77
2023/01/15 00:40:29;;;;;;;10.47;2.03;;;;;;;4.63;100.00;98613.47;4986004;28;20058;-75
2023/01/15 00:42:54;;;;;;;9.33;2.43;;;;;;;4.69;100.00;98614.59;4969225;28;20055;-76
2023/01/15 00:45:20;;;;;;;7.90;1.30;;;;;;;4.69;100.00;98619.91;4968927;28;20034;-76
2023/01/15 00:47:47;;;;;;;8.82;1.20;;;;;;;4.62;100.00;98612.66;4952739;28;20037;-76
2023/01/15 00:50:14;;;;;;;18.63;1.42;;;;;;;4.64;100.00;98626.53;4980013;28;20045;-76
2023/01/15 00:52:41;;;;;;;6.00;1.45;;;;;;;4.69;100.00;98623.34;4983231;28;20080;-76
2023/01/15 00:55:07;;;;;;;11.13;2.25;;;;;;;4.63;100.00;98619.56;4955269;28;20095;-76
2023/01/15 00:57:33;;;;;;;13.15;1.73;;;;;;;4.69;100.00;98628.66;4968110;28;20526;-77
2023/01/15 00:59:58;;;;;;;12.73;1.42;;;;;;;4.64;100.00;98618.59;4954831;28;20030;-76
2023/01/15 01:02:24;;;;;;;16.63;2.03;;;;;;;4.65;100.00;98622.88;4984145;28;20026;-76
2023/01/15 01:04:49;;;;;;;5.43;0.93;;;;;;;4.61;100.00;98611.03;4966371;28;20403;-76
2023/01/15 01:07:15;;;;;;;11.15;2.05;;;;;;;4.61;100.00;98613.66;4979727;28;20081;-76
2023/01/15 01:09:40;;;;;;;5.63;1.00;;;;;;;4.59;100.00;98607.72;4966863;28;20062;-77
2023/01/15 01:12:06;;;;;;;6.88;1.15;;;;;;;4.57;100.00;98608.91;4968316;28;20364;-77
2023/01/15 01:14:32;;;;;;;3.42;0.98;;;;;;;4.57;100.00;98615.00;4967555;28;20023;-77
2023/01/15 01:16:57;;;;;;;5.22;1.13;;;;;;;4.60;100.00;98621.75;4969992;28;20031;-77
2023/01/15 01:19:23;;;;;;;8.73;1.30;;;;;;;4.61;100.00;98621.59;4979081;28;20415;-77
2023/01/15 01:21:50;;;;;;;8.38;1.77;;;;;;;4.56;100.00;98631.03;4968630;28;20763;-77
2023/01/15 01:24:18;;;;;;;8.93;2.40;;;;;;;4.54;100.00;98625.09;4971870;28;20022;-77
2023/01/15 01:26:44;;;;;;;19.42;3.53;;;;;;;4.59;100.00;98634.16;4958695;28;20042;-77
2023/01/15 01:29:17;;;;;;;4.35;1.42;;;;;;;4.60;100.00;98614.66;4966035;28;20535;-77
2023/01/15 01:31:43;;;;;;;5.10;1.48;;;;;;;4.60;100.00;98621.75;4963382;28;20043;-77
2023/01/15 01:34:10;;;;;;;4.10;1.13;;;;;;;4.57;100.00;98620.31;4953789;28;20022;-77
2023/01/15 01:36:37;;;;;;;6.53;1.20;;;;;;;4.53;100.00;98615.53;4964067;28;20507;-77
2023/01/15 01:39:04;;;;;;;8.35;1.48;;;;;;;4.52;100.00;98624.44;4954420;28;20025;-77
2023/01/15 01:41:31;;;;;;;3.70;1.58;;;;;;;4.53;100.00;98623.47;4973228;28;20041;-77
2023/01/15 01:43:57;;;;;;;;;;;;;;;4.53;100.00;98629.56;4970021;28;20019;-77
2023/01/15 01:46:24;;;;;;;6.78;1.10;;;;;;;4.48;100.00;98625.81;4969179;28;20021;-77
2023/01/15 01:48:54;;;;;;;3.90;1.10;;;;;;;4.48;100.00;98620.53;4959331;28;20491;-77
2023/01/15 01:51:24;;;;;;;8.82;1.58;;;;;;;4.51;100.00;98628.91;4983438;28;20069;-77
2023/01/15 01:53:49;;;;;;;9.63;1.17;;;;;;;4.46;100.00;98618.06;4982243;28;20894;-77
2023/01/15 01:56:17;;;;;;;3.58;1.15;;;;;;;4.51;100.00;98623.63;4983675;28;20054;-78
2023/01/15 01:58:46;;;;;;;6.18;1.50;;;;;;;4.50;100.00;98623.81;4966023;28;20518;-77
2023/01/15 02:01:13;;;;;;;10.85;1.63;;;;;;;4.55;100.00;98634.69;4968012;28;20435;-77
2023/01/15 02:03:39;;;;;;;5.97;1.75;;;;;;;4.53;100.00;98629.56;4981840;28;20026;-77
2023/01/15 02:06:07;;;;;;;9.05;1.08;;;;;;;4.57;100.00;98624.78;4960832;28;20738;-77
2023/01/15 02:08:33;;;;;;;3.22;1.30;;;;;;;4.55;100.00;98622.28;4981536;28;20029;-77
2023/01/15 02:11:00;;;;;;;9.30;1.23;;;;;;;4.56;100.00;98612.53;4969727;28;20085;-76
2023/01/15 02:13:39;;;;;;;6.68;1.48;;;;;;;4.57;100.00;98614.19;4961856;28;20022;-77
2023/01/15 02:16:09;;;;;;;5.28;1.63;;;;;;;4.55;100.00;98627.56;4954548;28;20454;-77
2023/01/15 02:19:06;;;;;;;6.95;1.10;;;;;;;4.55;100.00;98626.75;4977992;28;20126;-77
2023/01/15 02:21:56;;;;;;;7.70;1.60;;;;;;;4.62;100.00;98623.22;4939531;28;20418;-77
2023/01/15 02:24:33;;;;;;;5.93;1.45;;;;;;;4.57;100.00;98619.47;4957859;28;20051;-77
2023/01/15 02:27:13;;;;;;;7.75;0.82;;;;;;;4.54;100.00;98615.38;4963411;28;20097;-77
2023/01/15 02:29:47;;;;;;;8.27;1.30;;;;;;;4.64;100.00;98612.50;4982082;28;20089;-77
2023/01/15 02:32:36;;;;;;;7.13;1.05;;;;;;;4.64;100.00;98605.38;4961490;28;20031;-77
2023/01/15 02:35:08;;;;;;;4.50;0.98;;;;;;;4.65;100.00;98596.44;4990609;28;20038;-77
2023/01/15 02:37:38;;;;;;;10.38;1.35;;;;;;;4.63;100.00;98595.78;4982661;28;20026;-77
2023/01/15 02:40:06;;;;;;;5.00;1.20;;;;;;;4.54;100.00;98598.66;4959590;28;20072;-76
2023/01/15 02:42:35;;;;;;;8.05;1.95;;;;;;;4.55;100.00;98609.06;4946314;28;20023;-77
2023/01/15 02:45:02;;;;;;;5.82;1.30;;;;;;;4.60;100.00;98614.66;4952758;28;20452;-77
2023/01/15 02:47:34;;;;;;;7.55;1.45;;;;;;;4.65;100.00;98617.59;4982740;28;20050;-76
2023/01/15 02:50:05;;;;;;;8.48;1.23;;;;;;;4.63;100.00;98624.88;4981855;28;20101;-76
2023/01/15 02:52:39;;;;;;;;;;;;;;;4.62;100.00;98628.53;4981771;28;20030;-77
2023/01/15 02:55:17;;;;;;;6.10;1.52;;;;;;;4.63;100.00;98635.44;4951869;28;19923;-76
2023/01/15 02:57:47;;;;;;;15.40;2.13;;;;;;;4.61;100.00;98632.19;4950494;28;20292;-76
2023/01/15 03:00:18;;;;;;;31.00;4.50;;;;;;;4.59;100.00;98636.00;4966619;28;20023;-76
2023/01/15 03:02:52;;;;;;;7.95;2.08;;;;;;;4.67;100.00;98640.38;4950562;28;20447;-77
2023/01/15 03:05:37;;;;;;;4.95;1.40;;;;;;;4.68;100.00;98629.63;4961409;28;20725;-77
2023/01/15 03:08:06;;;;;;;11.13;1.35;;;;;;;4.69;100.00;98625.19;4975616;28;20077;-77
2023/01/15 03:10:52;;;;;;;7.03;1.63;;;;;;;4.73;100.00;98619.38;4981589;28;20030;-76
2023/01/15 03:13:44;;;;;;;15.27;1.73;;;;;;;4.72;100.00;98601.84;4945591;28;20516;-76
2023/01/15 03:16:39;;;;;;;2.88;1.08;;;;;;;4.76;100.00;98607.63;4973140;28;20121;-76
2023/01/15 03:19:17;;;;;;;4.05;1.08;;;;;;;4.75;100.00;98595.38;4977869;28;20031;-77
2023/01/15 03:21:50;;;;;;;6.80;2.03;;;;;;;4.65;100.00;98580.56;4980769;28;20034;-77
2023/01/15 03:24:23;;;;;;;5.18;1.75;;;;;;;4.70;100.00;98577.41;4961212;28;20440;-77
2023/01/15 03:26:49;;;;;;;6.82;1.42;;;;;;;4.68;100.00;98578.59;4983061;28;20066;-77
2023/01/15 03:29:15;;;;;;;6.82;1.30;;;;;;;4.70;100.00;98582.69;4966398;28;20497;-77
2023/01/15 03:31:40;;;;;;;9.10;1.50;;;;;;;4.73;100.00;98571.78;4981055;28;20042;-77
2023/01/15 03:34:06;;;;;;;8.00;1.00;;;;;;;4.68;100.00;98554.78;4950486;28;20055;-77
2023/01/15 03:36:32;;;;;;;;;;;;;;;4.74;100.00;98546.97;4976847;28;20527;-77
2023/01/15 03:39:00;;;;;;;14.93;2.25;;;;;;;4.68;100.00;98536.28;4985076;28;19914;-76
2023/01/15 03:42:13;;;;;;;7.30;1.63;;;;;;;4.75;100.00;98529.28;4958058;28;20038;-77
2023/01/15 03:45:04;;;;;;;8.48;1.38;;;;;;;4.70;100.00;98489.34;4970071;28;20435;-77
2023/01/15 03:47:35;;;;;;;6.80;1.42;;;;;;;4.72;100.00;98497.94;4962050;28;20127;-77
2023/01/15 03:50:16;;;;;;;8.70;1.92;;;;;;;4.71;100.00;98496.31;4987418;28;20476;-77
2023/01/15 03:52:53;;;;;;;11.98;2.20;;;;;;;4.65;100.00;98506.56;4961907;28;20486;-77
2023/01/15 03:55:26;;;;;;;6.47;1.27;;;;;;;4.72;100.00;98498.75;4953723;28;20974;-77
2023/01/15 03:58:01;;;;;;;10.15;1.63;;;;;;;4.73;100.00;98475.78;4962692;28;20082;-76
2023/01/15 04:00:37;;;;;;;11.68;2.42;;;;;;;4.75;100.00;98464.03;4945393;28;20086;-76
2023/01/15 04:03:06;;;;;;;13.50;2.22;;;;;;;4.72;100.00;98455.66;4957394;28;20023;-77
2023/01/15 04:05:34;;;;;;;14.30;1.42;;;;;;;4.66;100.00;98449.28;4979847;28;20044;-77
2023/01/15 04:08:00;;;;;;;7.65;1.17;;;;;;;4.67;100.00;98450.09;4972515;28;20026;-76
2023/01/15 04:10:27;;;;;;;9.05;1.20;;;;;;;4.61;100.00;98433.94;4983538;28;20026;-76
2023/01/15 04:12:54;;;;;;;6.05;2.28;;;;;;;4.59;100.00;98443.88;4977153;28;20030;-76
2023/01/15 04:15:20;;;;;;;4.28;1.05;;;;;;;4.59;100.00;98435.94;4972681;28;20030;-76
2023/01/15 04:17:45;;;;;;;9.73;1.80;;;;;;;4.59;100.00;98441.22;4969499;28;20109;-76
2023/01/15 04:20:12;;;;;;;13.20;1.50;;;;;;;4.49;100.00;98429.28;4975949;28;20058;-77
2023/01/15 04:22:40;;;;;;;6.18;1.25;;;;;;;4.55;100.00;98447.06;4969236;28;20030;-76
2023/01/15 04:25:06;;;;;;;8.07;1.83;;;;;;;4.55;100.00;98431.19;4980384;23;20055;-72
2023/01/15 04:27:31;;;;;;;5.57;1.42;;;;;;;4.58;100.00;98434.28;4958866;28;20035;-72
2023/01/15 04:29:57;;;;;;;8.05;2.13;;;;;;;4.57;100.00;98434.50;4938754;28;20073;-73
2023/01/15 04:32:23;;;;;;;9.13;2.83;;;;;;;4.57;100.00;98424.72;4962444;28;20035;-72
2023/01/15 04:34:48;;;;;;;8.57;1.38;;;;;;;4.58;100.00;98426.38;4924504;28;20494;-75
2023/01/15 04:37:15;;;;;;;8.27;1.55;;;;;;;4.59;100.00;98427.22;4957139;28;20086;-73
2023/01/15 04:39:40;;;;;;;9.77;3.28;;;;;;;4.58;100.00;98409.69;4952360;28;20050;-73
2023/01/15 04:44:55;;;;;;;17.85;3.78;;;;;;;4.53;100.00;98407.59;4961951;28;20057;-72
2023/01/15 04:47:20;;;;;;;5.77;1.10;;;;;;;4.55;100.00;98425.91;4945879;28;20645;-72
2023/01/15 04:49:46;;;;;;;8.53;2.13;;;;;;;4.56;100.00;98416.97;4949523;28;20064;-73
2023/01/15 04:52:11;;;;;;;12.67;1.47;;;;;;;4.57;100.00;98397.50;4933130;29;20130;-73
2023/01/15 04:54:37;;;;;;;13.47;2.70;;;;;;;4.59;100.00;98412.16;4950265;28;20253;-71
2023/01/15 04:57:03;;;;;;;7.63;2.05;;;;;;;4.52;100.00;98411.25;4954505;28;20066;-72
2023/01/15 04:59:28;;;;;;;7.13;1.08;;;;;;;4.58;100.00;98418.44;4936937;29;20043;-72
2023/01/15 05:01:54;;;;;;;14.03;2.63;;;;;;;4.63;100.00;98408.13;4950059;28;20031;-74
2023/01/15 05:04:19;;;;;;;8.43;2.50;;;;;;;4.68;100.00;98404.94;4939638;28;20042;-74
2023/01/15 05:06:45;;;;;;;4.90;1.33;;;;;;;4.66;100.00;98385.84;4964354;28;20031;-73
2023/01/15 05:09:10;;;;;;;6.70;1.47;;;;;;;4.64;100.00;98379.91;4950304;28;20035;-73
2023/01/15 05:11:37;;;;;;;15.33;2.67;;;;;;;4.65;100.00;98385.00;4965270;28;20031;-73
2023/01/15 05:14:03;;;;;;;9.27;2.05;;;;;;;4.67;100.00;98386.66;4965193;28;20028;-72
2023/01/15 05:16:29;;;;;;;;;;;;;;;4.65;100.00;98376.25;4932958;29;20109;-75
2023/01/15 05:19:03;;;;;;;9.95;2.35;;;;;;;4.57;100.00;98368.44;4953318;28;19918;-73
2023/01/15 05:21:31;;;;;;;16.38;3.13;;;;;;;4.53;100.00;98375.06;4954883;28;20523;-72
2023/01/15 05:23:59;;;;;;;16.00;2.15;;;;;;;4.55;100.00;98376.53;4948101;28;20515;-73
2023/01/15 05:26:25;;;;;;;14.80;1.75;;;;;;;4.51;100.00;98383.16;4935919;29;20456;-73
2023/01/15 05:28:53;;;;;;;6.47;1.70;;;;;;;4.61;100.00;98362.59;4959969;28;20047;-72
2023/01/15 05:31:19;;;;;;;19.20;2.75;;;;;;;4.59;100.00;98359.31;4938721;28;20154;-74
2023/01/15 05:33:46;;;;;;;9.43;1.70;;;;;;;4.54;100.00;98329.97;4952896;28;20122;-75
2023/01/15 05:36:14;;;;;;;7.20;1.83;;;;;;;4.56;100.00;98335.06;4937660;28;20070;-72
2023/01/15 05:38:39;;;;;;;9.00;1.65;;;;;;;4.65;100.00;98329.47;4939774;28;20043;-75
2023/01/15 05:41:47;;;;;;;8.68;2.17;;;;;;;4.59;100.00;98314.38;4938817;28;20143;-74
2023/01/15 05:43:54;;;;;;;16.73;2.85;;;;;;;4.60;100.00;98300.16;4947937;28;20039;-72
2023/01/15 05:46:19;;;;;;;10.80;3.00;;;;;;;4.59;100.00;98314.38;4946368;28;20034;-73
2023/01/15 05:48:45;;;;;;;15.55;3.17;;;;;;;4.56;100.00;98311.28;4949264;28;20043;-73
2023/01/15 05:51:10;;;;;;;12.00;1.77;;;;;;;4.55;100.00;98294.59;4932833;29;20098;-72
2023/01/15 05:53:36;;;;;;;10.23;2.30;;;;;;;4.58;100.00;98325.94;4964638;28;20019;-72
2023/01/15 05:56:02;;;;;;;13.90;2.07;;;;;;;4.60;100.00;98301.97;4951085;28;20404;-73
2023/01/15 05:58:27;;;;;;;;;;;;;;;4.63;100.00;98299.78;4957216;28;20031;-73
2023/01/15 06:00:53;;;;;;;13.20;3.03;;;;;;;4.62;100.00;98279.66;4948421;28;20381;-72
2023/01/15 06:03:20;;;;;;;;;;;;;;;4.60;100.00;98280.84;4936045;28;20035;-76
2023/01/15 06:05:49;;;;;;;15.65;2.22;;;;;;;4.67;100.00;98283.56;4948698;28;20335;-72
2023/01/15 06:08:15;;;;;;;13.90;2.63;;;;;;;4.71;100.00;98267.16;4949263;28;20665;-72
2023/01/15 06:10:43;;;;;;;12.17;2.80;;;;;;;4.72;100.00;98257.41;4961382;28;20054;-72
2023/01/15 06:13:09;;;;;;;14.48;2.42;;;;;;;4.71;100.00;98239.91;4931822;29;20042;-75
2023/01/15 06:15:34;;;;;;;9.37;1.57;;;;;;;4.74;100.00;98218.38;4948686;28;20404;-75
2023/01/15 06:17:59;;;;;;;9.07;1.80;;;;;;;4.72;100.00;98202.69;4947402;28;20060;-72
2023/01/15 06:20:25;;;;;;;7.90;1.50;;;;;;;4.78;100.00;98195.88;4938885;29;20074;-72
2023/01/15 06:22:50;;;;;;;11.93;1.77;;;;;;;4.68;100.00;98192.69;4948847;28;20031;-73
2023/01/15 06:25:15;;;;;;;11.03;2.63;;;;;;;4.67;100.00;98183.13;4945061;28;20034;-71
2023/01/15 06:27:43;;;;;;;13.65;1.90;;;;;;;4.66;100.00;98184.97;4953790;28;20035;-72
2023/01/15 06:30:10;;;;;;;13.68;2.67;;;;;;;4.68;100.00;98190.03;4951992;28;20030;-73
2023/01/15 06:32:35;;;;;;;12.75;3.95;;;;;;;4.66;100.00;98190.25;4941103;28;20503;-72
2023/01/15 06:35:00;;;;;;;7.63;1.53;;;;;;;4.63;100.00;98175.56;4947984;28;20035;-73
2023/01/15 06:37:26;;;;;;;15.47;3.07;;;;;;;4.63;100.00;98198.53;4949917;28;20053;-71
2023/01/15 06:39:51;;;;;;;21.40;2.70;;;;;;;4.64;100.00;98197.53;4950058;28;20282;-72
2023/01/15 06:47:45;;;;;;;12.00;1.77;;;;;;;4.73;100.00;98161.22;4950636;28;20461;-74
2023/01/15 06:50:10;;;;;;;12.88;3.80;;;;;;;4.76;100.00;98145.00;4945043;28;20094;-71
2023/01/15 06:52:35;;;;;;;9.63;2.23;;;;;;;4.78;100.00;98103.34;4943161;28;20485;-72
2023/01/15 06:55:01;;;;;;;12.93;2.10;;;;;;;4.77;100.00;98096.41;4956510;28;20081;-72
2023/01/15 06:57:26;;;;;;;8.90;2.30;;;;;;;4.76;100.00;98073.63;4948190;28;20027;-72
2023/01/15 06:59:51;;;;;;;20.40;2.47;;;;;;;4.75;100.00;98093.97;4946464;28;20039;-72
2023/01/15 07:02:17;;;;;;;9.33;2.27;;;;;;;4.76;100.00;98078.94;4938360;29;20059;-72
2023/01/15 07:04:42;;;;;;;10.98;2.95;;;;;;;4.79;100.00;98046.81;4930543;28;20086;-71
2023/01/15 07:07:08;;;;;;;12.07;2.30;;;;;;;4.74;100.00;98052.66;4930714;29;20028;-71
2023/01/15 07:09:33;;;;;;;12.97;2.37;;;;;;;4.73;100.00;98047.56;4940525;28;20540;-72
2023/01/15 07:11:58;;;;;;;11.27;2.50;;;;;;;4.79;100.00;98052.09;4930273;29;20043;-73
2023/01/15 07:14:26;;;;;;;9.40;2.20;;;;;;;4.79;100.00;98057.38;4948166;28;20039;-75
2023/01/15 07:16:52;;;;;;;10.88;2.05;;;;;;;4.70;100.00;98032.91;4949104;28;20035;-72
2023/01/15 07:19:18;;;;;;;8.00;1.77;;;;;;;4.71;100.00;98053.06;4931080;29;20031;-73
2023/01/15 07:21:44;;;;;;;15.23;3.42;;;;;;;4.74;100.00;98015.66;4948009;28;20074;-75
2023/01/15 07:24:11;;;;;;;6.90;2.40;;;;;;;4.78;100.00;97982.56;4947743;28;20051;-73
2023/01/15 07:26:36;;;;;;;;;;;;;;;4.76;100.00;97954.69;4944457;28;20098;-71
2023/01/15 07:29:02;;;;;;;13.55;3.17;;;;;;;4.75;100.00;97913.41;4947816;28;19958;-72
2023/01/15 07:31:28;;;;;;;8.48;1.90;;;;;;;4.76;100.00;97896.53;4930526;29;20027;-72
2023/01/15 07:33:56;;;;;;;18.13;1.98;;;;;;;4.68;100.00;97872.91;4947741;28;20596;-75
2023/01/15 07:36:22;;;;;;;12.13;2.40;;;;;;;4.64;100.00;97905.00;4926968;29;20039;-73
2023/01/15 07:38:47;;;;;;;9.98;1.70;;;;;;;4.71;100.00;97896.31;4937029;28;20400;-72
2023/01/15 07:52:09;;;;;;;9.77;2.25;;;;;;;4.71;100.00;97838.16;4945665;28;20476;-72
2023/01/15 07:54:35;;;;;;;9.07;1.60;;;;;;;4.71;100.00;97848.75;4944057;28;20059;-73
2023/01/15 07:57:00;;;;;;;10.97;2.70;;;;;;;4.70;100.00;97825.94;4950332;28;20054;-72
2023/01/15 07:59:26;;;;;;;21.65;2.63;;;;;;;4.72;100.00;97805.44;4949720;28;20948;-71
2023/01/15 08:01:51;;;;;;;7.33;1.80;;;;;;;4.74;100.00;97769.06;4942756;28;20039;-71
2023/01/15 08:04:17;;;;;;;12.23;1.80;;;;;;;4.79;100.00;97742.84;4947728;28;20023;-73
2023/01/15 08:06:42;;;;;;;9.88;1.85;;;;;;;4.78;100.00;97718.25;4933533;28;20515;-72
2023/01/15 08:09:07;;;;;;;8.63;1.60;;;;;;;4.82;100.00;97708.06;4930354;29;20035;-73
2023/01/15 08:17:01;;;;;;;15.05;4.55;;;;;;;4.75;100.00;97665.78;4966543;28;20472;-72
2023/01/15 08:19:28;;;;;;;12.77;3.78;;;;;;;4.82;100.00;97666.63;4949205;28;20046;-72
2023/01/15 08:21:55;;;;;;;12.45;2.22;;;;;;;4.85;100.00;97586.91;4956534;28;20038;-74
2023/01/15 08:24:21;;;;;;;7.10;1.67;;;;;;;4.81;100.00;97585.66;4948441;28;20019;-71
2023/01/15 08:26:46;;;;;;;10.77;1.92;;;;;;;4.88;100.00;97576.94;4958758;28;20038;-72
2023/01/15 08:29:11;;;;;;;11.87;1.83;;;;;;;4.81;100.00;97540.75;4940558;29;20456;-72
2023/01/15 08:31:39;;;;;;;8.63;2.27;;;;;;;4.84;100.00;97553.53;4962959;28;20485;-71
2023/01/15 08:34:04;;;;;;;12.73;2.08;;;;;;;4.84;100.00;97569.41;4933605;29;20038;-71
2023/01/15 08:36:29;;;;;;;7.73;2.30;;;;;;;4.79;100.00;97539.31;4950277;28;20396;-72
2023/01/15 08:38:55;;;;;;;8.17;1.47;;;;;;;4.81;100.00;97529.34;4933101;29;20069;-71
2023/01/15 08:41:20;;;;;;;9.90;1.53;;;;;;;4.84;100.00;97482.16;4947235;28;20039;-72
2023/01/15 08:43:45;;;;;;;12.80;1.83;;;;;;;4.82;100.00;97435.81;4955547;28;20042;-72
2023/01/15 08:46:11;;;;;;;12.10;2.57;;;;;;;4.81;100.00;97416.50;4955098;28;20032;-71
2023/01/15 08:48:37;;;;;;;11.65;1.70;;;;;;;4.89;100.00;97396.97;4947571;28;20532;-73
2023/01/15 08:51:06;;;;;;;17.13;2.08;;;;;;;5.26;100.00;97429.00;4932782;29;20036;-73
2023/01/15 08:53:32;;;;;;;11.10;2.97;;;;;;;5.43;100.00;97387.81;4950028;28;20032;-72
2023/01/15 08:55:57;;;;;;;13.70;2.17;;;;;;;5.35;100.00;97300.75;4932550;29;20027;-71
2023/01/15 08:58:23;;;;;;;7.53;1.80;;;;;;;5.88;100.00;97316.25;4957416;28;20089;-73
2023/01/15 09:00:48;;;;;;;14.27;2.07;;;;;;;5.91;100.00;97201.16;4968880;28;20674;-71
2023/01/15 09:03:14;;;;;;;9.00;2.05;;;;;;;5.85;100.00;97081.09;4963481;28;20581;-74
2023/01/15 09:05:39;;;;;;;7.45;1.50;;;;;;;6.04;100.00;97113.69;4964465;28;20412;-72
2023/01/15 09:08:06;;;;;;;8.75;1.48;;;;;;;5.75;100.00;96945.00;4931913;29;20046;-73
2023/01/15 09:10:31;;;;;;;;;;;;;;;5.63;100.00;96926.44;4946643;28;20035;-73
2023/01/15 09:13:01;;;;;;;10.48;2.95;;;;;;;5.72;100.00;96965.59;4949740;28;19914;-73
2023/01/15 09:15:31;;;;;;;13.52;1.92;;;;;;;5.66;100.00;97000.06;4945435;28;20114;-72
2023/01/15 09:17:57;;;;;;;10.13;2.42;;;;;;;5.62;100.00;96948.59;4932467;29;20031;-72
2023/01/15 09:20:23;;;;;;;13.15;1.90;;;;;;;5.49;100.00;96923.16;4939169;28;20038;-72
2023/01/15 09:22:49;;;;;;;12.27;2.65;;;;;;;5.41;100.00;96940.13;4951383;28;20058;-73
2023/01/15 09:25:17;;;;;;;12.00;3.13;;;;;;;5.31;100.00;96947.78;4951196;28;20027;-71
2023/01/15 09:27:42;;;;;;;6.60;1.83;;;;;;;5.32;100.00;97023.47;4951285;28;20062;-72
2023/01/15 09:30:15;;;;;;;10.33;2.17;;;;;;;5.27;100.00;97033.91;4963509;28;20054;-73
2023/01/15 09:32:40;;;;;;;9.45;1.92;;;;;;;5.29;100.00;97021.22;4931695;28;20306;-72
2023/01/15 09:35:06;;;;;;;15.17;2.73;;;;;;;5.34;100.00;97042.56;4931394;29;20042;-73
2023/01/15 09:37:32;;;;;;;16.80;2.03;;;;;;;5.28;100.00;96985.25;4931975;28;20031;-71
2023/01/15 09:39:57;;;;;;;10.37;2.17;;;;;;;5.15;100.00;96962.41;4936639;29;20039;-71
2023/01/15 09:42:49;;;;;;;13.00;2.30;;;;;;;5.18;100.00;97028.06;4944458;28;20027;-72
2023/01/15 09:45:36;;;;;;;10.13;1.88;;;;;;;5.26;100.00;96963.50;4955127;28;20043;-71
2023/01/15 09:48:33;;;;;;;6.47;2.08;;;;;;;5.34;100.00;96989.66;4952637;28;20508;-71
2023/01/15 09:51:13;;;;;;;17.02;2.13;;;;;;;5.31;100.00;97011.25;4966686;28;20027;-73
2023/01/15 09:53:49;;;;;;;9.00;1.50;;;;;;;5.77;100.00;96991.38;4960548;28;20035;-73
2023/01/15 09:56:23;;;;;;;10.57;1.88;;;;;;;5.70;100.00;96822.09;4931507;29;20396;-71
2023/01/15 09:58:51;;;;;;;8.50;1.52;;;;;;;5.64;100.00;96605.19;4948721;28;20035;-75
2023/01/15 10:01:22;;;;;;;11.13;1.80;;;;;;;5.44;100.00;96581.78;4961417;28;20499;-72
2023/01/15 10:03:51;;;;;;;9.07;1.70;;;;;;;5.26;100.00;96617.84;4963415;28;20503;-71
2023/01/15 10:06:36;;;;;;;11.15;2.28;;;;;;;5.35;100.00;96660.66;4962277;28;20035;-72
2023/01/15 10:09:10;;;;;;;6.70;1.95;;;;;;;5.28;100.00;96548.88;4966729;28;20038;-72
2023/01/15 10:14:47;;;;;;;15.77;1.63;;;;;;;5.36;100.00;96667.56;4966474;28;20074;-72
2023/01/15 10:17:19;;;;;;;6.82;1.17;;;;;;;5.35;100.00;96654.56;4950411;28;20451;-71
2023/01/15 10:19:45;;;;;;;8.48;1.95;;;;;;;5.27;100.00;96637.19;4966469;28;20571;-72
2023/01/15 10:22:45;;;;;;;9.65;1.70;;;;;;;5.33;100.00;96702.38;4930884;29;20110;-71
2023/01/15 10:25:18;;;;;;;13.93;2.20;;;;;;;5.39;100.00;96658.38;4942068;28;20548;-71
2023/01/15 10:27:49;;;;;;;8.07;1.75;;;;;;;5.67;100.00;96551.84;4975065;23;20066;-76
2023/01/15 10:30:20;;;;;;;11.32;1.95;;;;;;;5.63;100.00;96428.97;4931794;29;20039;-76
2023/01/15 10:32:53;;;;;;;6.95;1.33;;;;;;;5.57;100.00;96318.78;4943797;28;20046;-76
2023/01/15 10:35:30;;;;;;;3.80;1.23;;;;;;;5.34;100.00;96253.59;4925818;28;20035;-75
2023/01/15 10:38:14;;;;;;;12.27;1.88;;;;;;;5.39;100.00;96264.28;4919292;28;20165;-76
2023/01/15 10:41:07;;;;;;;8.60;1.73;;;;;;;5.40;100.00;96292.31;4837465;28;20681;-77
2023/01/15 10:43:35;;;;;;;9.02;2.25;;;;;;;5.48;100.00;96398.56;4867726;28;20114;-75
2023/01/15 10:46:10;;;;;;;7.03;1.35;;;;;;;5.40;100.00;96348.66;4947098;28;20094;-75
2023/01/15 10:48:44;;;;;;;5.82;1.20;;;;;;;5.77;100.00;96418.91;4948721;28;20027;-77
2023/01/15 10:51:20;;;;;;;11.25;2.40;;;;;;;6.37;100.00;96255.94;4947294;29;20381;-75
2023/01/15 10:53:52;;;;;;;9.55;1.30;;;;;;;6.28;100.00;95750.56;4931422;29;20137;-75
2023/01/15 10:56:42;;;;;;;5.82;1.08;;;;;;;6.07;100.00;95720.53;4947394;28;20094;-75
2023/01/15 10:59:26;;;;;;;5.90;1.40;;;;;;;6.28;98.93;95710.81;4957702;28;20406;-75
2023/01/15 11:01:54;;;;;;;6.32;1.27;;;;;;;6.72;97.84;95789.19;4931449;28;20059;-75
2023/01/15 11:04:20;;;;;;;12.07;1.58;;;;;;;6.58;96.08;95523.91;4948652;28;20030;-75
2023/01/15 11:06:45;;;;;;;8.65;1.10;;;;;;;6.44;95.48;95480.44;4947756;28;20035;-76
2023/01/15 11:09:19;;;;;;;13.55;1.60;;;;;;;6.00;95.78;95438.59;4953372;28;20085;-75
2023/01/15 11:20:27;;;;;;;16.80;2.13;;;;;;;5.69;96.08;95582.16;4946995;28;20366;-75
2023/01/15 11:22:56;;;;;;;9.93;1.48;;;;;;;5.85;96.50;95733.03;4946909;28;20109;-75
2023/01/15 11:25:30;;;;;;;5.03;1.55;;;;;;;6.02;96.51;95770.00;4931209;29;20026;-75
2023/01/15 11:27:58;;;;;;;8.80;1.70;;;;;;;5.58;95.20;95527.59;4947107;28;20507;-75
2023/01/15 11:30:30;;;;;;;4.95;1.50;;;;;;;5.45;95.90;95639.94;4952042;28;20058;-75
2023/01/15 11:32:58;;;;;;;13.25;1.52;;;;;;;5.47;96.32;95711.88;4947080;28;20039;-75
2023/01/15 11:35:25;;;;;;;6.07;1.55;;;;;;;5.71;96.02;95775.00;4946610;28;20146;-74
2023/01/15 11:38:22;;;;;;;5.35;1.63;;;;;;;5.58;96.31;95743.72;4946886;28;20454;-75
2023/01/15 11:41:04;;;;;;;10.00;2.17;;;;;;;5.54;96.70;95784.94;4946897;29;20078;-75
2023/01/15 11:51:54;;;;;;;6.90;1.52;;;;;;;5.66;97.25;95915.19;4946868;28;20046;-75
2023/01/15 11:54:24;;;;;;;7.30;1.45;;;;;;;5.55;97.19;95889.69;4930598;29;20027;-75
2023/01/15 11:56:50;;;;;;;6.38;1.10;;;;;;;5.55;97.48;95934.66;4930936;28;20113;-75
2023/01/15 11:59:18;;;;;;;6.47;1.50;;;;;;;5.40;97.78;95935.28;4938989;28;20114;-75
2023/01/15 12:01:58;;;;;;;8.27;1.73;;;;;;;5.33;98.64;96006.88;4949946;29;20420;-75
2023/01/15 12:04:36;;;;;;;7.78;1.23;;;;;;;5.48;100.00;96247.78;4955398;28;20031;-75
2023/01/15 12:07:04;;;;;;;8.82;1.25;;;;;;;5.24;100.00;96203.97;4943129;28;20031;-76
2023/01/15 12:09:43;;;;;;;13.27;2.35;;;;;;;5.05;100.00;96264.19;4951638;28;20036;-75
2023/01/15 12:12:29;;;;;;;12.45;3.28;;;;;;;5.04;100.00;96397.41;4951728;28;20039;-75
2023/01/15 12:15:15;;;;;;;11.75;1.65;;;;;;;5.48;100.00;96712.53;4934335;29;20035;-75
2023/01/15 12:17:52;;;;;;;4.63;1.30;;;;;;;5.45;100.00;96551.63;4951025;28;20043;-75
2023/01/15 12:20:28;;;;;;;3.85;1.08;;;;;;;5.75;100.00;96659.16;4960634;28;20038;-76
2023/01/15 12:23:05;;;;;;;8.70;1.50;;;;;;;5.46;100.00;96395.34;4956901;28;20039;-75
2023/01/15 12:25:42;;;;;;;7.78;1.95;;;;;;;5.54;100.00;96579.34;4960479;28;20026;-75
2023/01/15 12:28:23;;;;;;;14.90;3.00;;;;;;;5.58;100.00;96590.28;4937374;29;20035;-75
2023/01/15 12:31:03;;;;;;;14.65;1.85;;;;;;;5.87;100.00;96732.22;4934145;29;20039;-75